sensor_id;sensor_type;location;lat;lon;timestamp;pressure;altitude;pressure_sealevel;temperature;humidity
22389;BME280;11362;48.102;11.620;2022-10-16T00:00:40;95329.59;;;23.38;54.30
22389;BME280;11362;48.102;11.620;2022-10-16T00:03:06;95323.69;;;23.36;54.24
22389;BME280;11362;48.102;11.620;2022-10-16T00:05:32;95321.69;;;23.36;54.04
22389;BME280;11362;48.102;11.620;2022-10-16T00:07:58;95330.00;;;23.36;54.09
22389;BME280;11362;48.102;11.620;2022-10-16T00:10:23;95318.91;;;23.36;54.06
22389;BME280;11362;48.102;11.620;2022-10-16T00:12:50;95324.44;;;23.36;54.49
22389;BME280;11362;48.102;11.620;2022-10-16T00:15:16;95324.44;;;23.36;54.65
22389;BME280;11362;48.102;11.620;2022-10-16T00:17:41;95335.53;;;23.36;54.03
22389;BME280;11362;48.102;11.620;2022-10-16T00:20:07;95323.25;;;23.37;54.56
22389;BME280;11362;48.102;11.620;2022-10-16T00:22:33;95330.44;;;23.35;54.58
22389;BME280;11362;48.102;11.620;2022-10-16T00:24:58;95335.97;;;23.35;55.09
22389;BME280;11362;48.102;11.620;2022-10-16T00:27:23;95335.53;;;23.36;54.13
22389;BME280;11362;48.102;11.620;2022-10-16T00:29:52;95327.66;;;23.35;54.24
22389;BME280;11362;48.102;11.620;2022-10-16T00:32:18;95327.66;;;23.35;54.10
22389;BME280;11362;48.102;11.620;2022-10-16T00:34:44;95335.97;;;23.35;54.79
22389;BME280;11362;48.102;11.620;2022-10-16T00:37:09;95337.16;;;23.33;54.43
22389;BME280;11362;48.102;11.620;2022-10-16T00:39:35;95328.84;;;23.33;54.38
22389;BME280;11362;48.102;11.620;2022-10-16T00:42:00;95330.44;;;23.35;54.44
22389;BME280;11362;48.102;11.620;2022-10-16T00:47:09;95330.84;;;23.33;54.01
22389;BME280;11362;48.102;11.620;2022-10-16T00:49:35;95332.81;;;23.33;53.99
22389;BME280;11362;48.102;11.620;2022-10-16T00:52:00;95332.81;;;23.33;53.85
22389;BME280;11362;48.102;11.620;2022-10-16T00:54:27;95323.72;;;23.32;53.85
22389;BME280;11362;48.102;11.620;2022-10-16T00:56:55;95324.50;;;23.33;53.49
22389;BME280;11362;48.102;11.620;2022-10-16T00:59:33;95330.03;;;23.33;53.50
22389;BME280;11362;48.102;11.620;2022-10-16T01:01:59;95326.50;;;23.32;53.59
22389;BME280;11362;48.102;11.620;2022-10-16T01:04:25;95330.03;;;23.33;53.56
22389;BME280;11362;48.102;11.620;2022-10-16T01:07:10;95323.72;;;23.32;53.78
22389;BME280;11362;48.102;11.620;2022-10-16T01:09:47;95341.94;;;23.33;53.80
22389;BME280;11362;48.102;11.620;2022-10-16T01:12:54;95343.91;;;23.33;53.69
22389;BME280;11362;48.102;11.620;2022-10-16T01:21:01;95353.41;;;23.32;53.61
22389;BME280;11362;48.102;11.620;2022-10-16T01:23:38;95354.63;;;23.31;53.45
22389;BME280;11362;48.102;11.620;2022-10-16T01:31:19;95360.97;;;23.31;53.65
22389;BME280;11362;48.102;11.620;2022-10-16T01:33:51;95349.06;;;23.31;53.38
22389;BME280;11362;48.102;11.620;2022-10-16T01:36:23;95346.31;;;23.31;53.33
22389;BME280;11362;48.102;11.620;2022-10-16T01:38:52;95349.06;;;23.31;53.38
22389;BME280;11362;48.102;11.620;2022-10-16T01:41:31;95351.84;;;23.31;53.40
22389;BME280;11362;48.102;11.620;2022-10-16T01:44:05;95349.88;;;23.31;53.76
22389;BME280;11362;48.102;11.620;2022-10-16T01:46:33;95349.06;;;23.31;53.68
22389;BME280;11362;48.102;11.620;2022-10-16T01:49:00;95344.34;;;23.31;53.68
22389;BME280;11362;48.102;11.620;2022-10-16T01:51:28;95349.06;;;23.31;53.56
22389;BME280;11362;48.102;11.620;2022-10-16T01:53:57;95348.28;;;23.30;53.86
22389;BME280;11362;48.102;11.620;2022-10-16T01:56:25;95345.09;;;23.32;53.92
22389;BME280;11362;48.102;11.620;2022-10-16T01:59:11;95338.00;;;23.31;53.85
22389;BME280;11362;48.102;11.620;2022-10-16T02:01:40;95343.53;;;23.31;53.79
22389;BME280;11362;48.102;11.620;2022-10-16T02:04:29;95343.53;;;23.31;53.52
22389;BME280;11362;48.102;11.620;2022-10-16T02:06:56;95337.19;;;23.30;53.71
22389;BME280;11362;48.102;11.620;2022-10-16T02:09:22;95338.00;;;23.31;53.37
22389;BME280;11362;48.102;11.620;2022-10-16T02:11:47;95336.41;;;23.30;53.52
22389;BME280;11362;48.102;11.620;2022-10-16T02:14:13;95339.19;;;23.30;53.18
22389;BME280;11362;48.102;11.620;2022-10-16T02:16:44;95334.41;;;23.30;53.26
22389;BME280;11362;48.102;11.620;2022-10-16T02:19:10;95335.63;;;23.29;53.08
22389;BME280;11362;48.102;11.620;2022-10-16T02:21:56;95337.63;;;23.29;52.99
22389;BME280;11362;48.102;11.620;2022-10-16T02:27:13;95334.06;;;23.28;53.16
22389;BME280;11362;48.102;11.620;2022-10-16T02:29:46;95333.28;;;23.28;53.03
22389;BME280;11362;48.102;11.620;2022-10-16T02:32:15;95338.81;;;23.28;52.99
22389;BME280;11362;48.102;11.620;2022-10-16T02:34:42;95338.81;;;23.28;53.07
22389;BME280;11362;48.102;11.620;2022-10-16T02:37:09;95344.38;;;23.28;52.93
22389;BME280;11362;48.102;11.620;2022-10-16T02:39:34;95338.81;;;23.28;52.84
22389;BME280;11362;48.102;11.620;2022-10-16T02:42:00;95338.81;;;23.28;52.75
22389;BME280;11362;48.102;11.620;2022-10-16T02:44:25;95338.81;;;23.28;52.83
22389;BME280;11362;48.102;11.620;2022-10-16T02:46:50;95342.78;;;23.27;52.68
22389;BME280;11362;48.102;11.620;2022-10-16T02:49:15;95339.59;;;23.28;52.81
22389;BME280;11362;48.102;11.620;2022-10-16T02:51:41;95337.22;;;23.27;52.96
22389;BME280;11362;48.102;11.620;2022-10-16T02:54:06;95347.13;;;23.28;53.14
22389;BME280;11362;48.102;11.620;2022-10-16T02:56:31;95346.34;;;23.27;52.83
22389;BME280;11362;48.102;11.620;2022-10-16T02:58:57;95361.78;;;23.28;52.96
22389;BME280;11362;48.102;11.620;2022-10-16T03:01:23;95361.41;;;23.26;52.89
22389;BME280;11362;48.102;11.620;2022-10-16T03:03:48;95357.44;;;23.27;53.03
22389;BME280;11362;48.102;11.620;2022-10-16T03:06:13;95348.31;;;23.27;52.89
22389;BME280;11362;48.102;11.620;2022-10-16T03:08:39;95357.44;;;23.27;53.08
22389;BME280;11362;48.102;11.620;2022-10-16T03:11:04;95360.19;;;23.27;53.16
22389;BME280;11362;48.102;11.620;2022-10-16T03:13:30;95343.56;;;23.27;53.18
22389;BME280;11362;48.102;11.620;2022-10-16T03:15:55;95344.78;;;23.26;52.85
22389;BME280;11362;48.102;11.620;2022-10-16T03:18:20;95352.28;;;23.26;52.77
22389;BME280;11362;48.102;11.620;2022-10-16T03:20:46;95346.75;;;23.26;53.04
22389;BME280;11362;48.102;11.620;2022-10-16T03:23:11;95352.28;;;23.26;52.81
22389;BME280;11362;48.102;11.620;2022-10-16T03:25:36;95353.84;;;23.27;52.83
22389;BME280;11362;48.102;11.620;2022-10-16T03:28:02;95342.78;;;23.27;52.84
22389;BME280;11362;48.102;11.620;2022-10-16T03:30:28;95352.28;;;23.26;52.73
22389;BME280;11362;48.102;11.620;2022-10-16T03:32:53;95352.28;;;23.26;52.76
22389;BME280;11362;48.102;11.620;2022-10-16T03:35:19;95358.63;;;23.26;52.73
22389;BME280;11362;48.102;11.620;2022-10-16T03:37:45;95362.59;;;23.25;52.68
22389;BME280;11362;48.102;11.620;2022-10-16T03:40:10;95365.38;;;23.25;52.65
22389;BME280;11362;48.102;11.620;2022-10-16T03:42:35;95359.84;;;23.25;52.77
22389;BME280;11362;48.102;11.620;2022-10-16T03:45:00;95359.84;;;23.25;52.67
22389;BME280;11362;48.102;11.620;2022-10-16T03:47:26;95367.34;;;23.25;52.76
22389;BME280;11362;48.102;11.620;2022-10-16T03:49:51;95374.47;;;23.26;52.67
22389;BME280;11362;48.102;11.620;2022-10-16T03:52:16;95378.44;;;23.25;52.65
22389;BME280;11362;48.102;11.620;2022-10-16T03:54:42;95371.31;;;23.24;52.76
22389;BME280;11362;48.102;11.620;2022-10-16T03:57:07;95372.88;;;23.25;52.52
22389;BME280;11362;48.102;11.620;2022-10-16T03:59:32;95367.34;;;23.25;52.60
22389;BME280;11362;48.102;11.620;2022-10-16T04:01:58;95364.22;;;23.23;52.57
22389;BME280;11362;48.102;11.620;2022-10-16T04:04:23;95364.56;;;23.25;52.47
22389;BME280;11362;48.102;11.620;2022-10-16T04:06:48;95367.34;;;23.25;52.48
22389;BME280;11362;48.102;11.620;2022-10-16T04:09:14;95358.66;;;23.23;52.30
22389;BME280;11362;48.102;11.620;2022-10-16T04:11:39;95357.47;;;23.24;52.60
22389;BME280;11362;48.102;11.620;2022-10-16T04:14:04;95359.03;;;23.25;52.63
22389;BME280;11362;48.102;11.620;2022-10-16T04:16:30;95354.69;;;23.24;52.66
22389;BME280;11362;48.102;11.620;2022-10-16T04:18:55;95360.59;;;23.26;53.01
22389;BME280;11362;48.102;11.620;2022-10-16T04:21:20;95362.97;;;23.27;53.03
22389;BME280;11362;48.102;11.620;2022-10-16T04:23:45;95353.84;;;23.27;53.47
22389;BME280;11362;48.102;11.620;2022-10-16T04:26:11;95358.22;;;23.28;53.38
22389;BME280;11362;48.102;11.620;2022-10-16T04:28:36;95368.09;;;23.29;53.47
22389;BME280;11362;48.102;11.620;2022-10-16T04:31:05;95364.53;;;23.28;53.88
22389;BME280;11362;48.102;11.620;2022-10-16T04:33:30;95370.09;;;23.28;53.89
22389;BME280;11362;48.102;11.620;2022-10-16T04:36:00;95368.09;;;23.29;53.96
22389;BME280;11362;48.102;11.620;2022-10-16T04:38:25;95368.09;;;23.29;54.17
22389;BME280;11362;48.102;11.620;2022-10-16T04:40:52;95373.66;;;23.29;54.28
22389;BME280;11362;48.102;11.620;2022-10-16T04:43:17;95368.09;;;23.29;53.74
22389;BME280;11362;48.102;11.620;2022-10-16T04:45:42;95368.09;;;23.29;54.09
22389;BME280;11362;48.102;11.620;2022-10-16T04:48:08;95366.91;;;23.30;54.09
22389;BME280;11362;48.102;11.620;2022-10-16T04:50:33;95372.44;;;23.30;53.98
22389;BME280;11362;48.102;11.620;2022-10-16T04:52:58;95381.97;;;23.29;54.34
22389;BME280;11362;48.102;11.620;2022-10-16T04:55:24;95375.63;;;23.28;54.19
22389;BME280;11362;48.102;11.620;2022-10-16T04:57:49;95362.56;;;23.29;54.09
22389;BME280;11362;48.102;11.620;2022-10-16T05:00:14;95359.78;;;23.29;54.24
22389;BME280;11362;48.102;11.620;2022-10-16T05:02:39;95362.56;;;23.29;54.25
22389;BME280;11362;48.102;11.620;2022-10-16T05:05:05;95361.38;;;23.30;54.18
22389;BME280;11362;48.102;11.620;2022-10-16T05:07:30;95368.09;;;23.29;54.48
22389;BME280;11362;48.102;11.620;2022-10-16T05:09:56;95374.44;;;23.29;54.35
22389;BME280;11362;48.102;11.620;2022-10-16T05:12:21;95372.44;;;23.30;54.06
22389;BME280;11362;48.102;11.620;2022-10-16T05:14:46;95359.78;;;23.29;53.65
22389;BME280;11362;48.102;11.620;2022-10-16T05:17:11;95368.09;;;23.29;53.67
22389;BME280;11362;48.102;11.620;2022-10-16T05:19:37;95364.13;;;23.30;54.05
22389;BME280;11362;48.102;11.620;2022-10-16T05:22:02;95351.06;;;23.30;53.61
22389;BME280;11362;48.102;11.620;2022-10-16T05:24:27;95351.84;;;23.31;54.03
22389;BME280;11362;48.102;11.620;2022-10-16T05:26:53;95364.91;;;23.30;54.01
22389;BME280;11362;48.102;11.620;2022-10-16T05:29:18;95362.94;;;23.31;54.37
22389;BME280;11362;48.102;11.620;2022-10-16T05:31:43;95372.44;;;23.30;54.21
22389;BME280;11362;48.102;11.620;2022-10-16T05:34:09;95375.22;;;23.30;54.19
22389;BME280;11362;48.102;11.620;2022-10-16T05:36:34;95378.75;;;23.30;54.44
22389;BME280;11362;48.102;11.620;2022-10-16T05:38:59;95378.00;;;23.30;54.33
22389;BME280;11362;48.102;11.620;2022-10-16T05:41:25;95372.44;;;23.30;54.30
22389;BME280;11362;48.102;11.620;2022-10-16T05:43:50;95383.53;;;23.30;54.09
22389;BME280;11362;48.102;11.620;2022-10-16T05:46:15;95391.84;;;23.30;54.70
22389;BME280;11362;48.102;11.620;2022-10-16T05:48:41;95400.16;;;23.30;54.77
22389;BME280;11362;48.102;11.620;2022-10-16T05:51:08;95400.16;;;23.30;54.82
22389;BME280;11362;48.102;11.620;2022-10-16T05:53:36;95398.16;;;23.30;54.82
22389;BME280;11362;48.102;11.620;2022-10-16T05:56:03;95401.75;;;23.31;54.73
22389;BME280;11362;48.102;11.620;2022-10-16T05:58:30;95396.59;;;23.29;54.45
22389;BME280;11362;48.102;11.620;2022-10-16T06:00:59;95402.94;;;23.30;54.74
22389;BME280;11362;48.102;11.620;2022-10-16T06:03:25;95409.25;;;23.30;54.42
22389;BME280;11362;48.102;11.620;2022-10-16T06:05:50;95414.78;;;23.30;53.70
22389;BME280;11362;48.102;11.620;2022-10-16T06:08:16;95408.09;;;23.31;53.75
22389;BME280;11362;48.102;11.620;2022-10-16T06:10:42;95414.75;;;23.33;53.44
22389;BME280;11362;48.102;11.620;2022-10-16T06:13:08;95412.00;;;23.33;53.75
22389;BME280;11362;48.102;11.620;2022-10-16T06:15:33;95412.38;;;23.36;53.33
22389;BME280;11362;48.102;11.620;2022-10-16T06:17:58;95416.34;;;23.35;53.96
22389;BME280;11362;48.102;11.620;2022-10-16T06:20:23;95415.56;;;23.34;53.64
22389;BME280;11362;48.102;11.620;2022-10-16T06:22:49;95421.47;;;23.36;53.32
22389;BME280;11362;48.102;11.620;2022-10-16T06:25:14;95417.50;;;23.37;54.40
22389;BME280;11362;48.102;11.620;2022-10-16T06:27:40;95420.28;;;23.37;54.32
22389;BME280;11362;48.102;11.620;2022-10-16T06:30:06;95426.22;;;23.39;53.88
22389;BME280;11362;48.102;11.620;2022-10-16T06:32:31;95426.16;;;23.42;53.85
22389;BME280;11362;48.102;11.620;2022-10-16T06:34:57;95426.16;;;23.42;53.88
22389;BME280;11362;48.102;11.620;2022-10-16T06:37:22;95425.78;;;23.40;54.57
22389;BME280;11362;48.102;11.620;2022-10-16T06:39:47;95425.00;;;23.40;54.30
22389;BME280;11362;48.102;11.620;2022-10-16T06:42:12;95420.22;;;23.40;54.63
22389;BME280;11362;48.102;11.620;2022-10-16T06:44:38;95435.28;;;23.39;55.05
22389;BME280;11362;48.102;11.620;2022-10-16T06:47:03;95462.25;;;23.39;55.05
22389;BME280;11362;48.102;11.620;2022-10-16T06:49:28;95465.41;;;23.38;53.46
22389;BME280;11362;48.102;11.620;2022-10-16T06:51:53;95465.03;;;22.92;48.91
22389;BME280;11362;48.102;11.620;2022-10-16T06:54:19;95465.28;;;22.57;47.75
22389;BME280;11362;48.102;11.620;2022-10-16T06:56:44;95462.84;;;22.66;48.62
22389;BME280;11362;48.102;11.620;2022-10-16T06:59:09;95467.84;;;22.85;48.20
22389;BME280;11362;48.102;11.620;2022-10-16T07:01:35;95470.53;;;22.95;48.51
22389;BME280;11362;48.102;11.620;2022-10-16T07:04:01;95470.47;;;23.02;48.47
22389;BME280;11362;48.102;11.620;2022-10-16T07:06:26;95463.31;;;23.05;48.68
22389;BME280;11362;48.102;11.620;2022-10-16T07:08:52;95467.69;;;23.06;48.18
22389;BME280;11362;48.102;11.620;2022-10-16T07:11:20;95468.03;;;23.08;48.83
22389;BME280;11362;48.102;11.620;2022-10-16T07:13:47;95477.53;;;23.10;48.49
22389;BME280;11362;48.102;11.620;2022-10-16T07:16:18;95476.34;;;23.11;48.67
22389;BME280;11362;48.102;11.620;2022-10-16T07:18:44;95476.31;;;23.18;48.91
22389;BME280;11362;48.102;11.620;2022-10-16T07:21:13;95487.34;;;23.22;48.74
22389;BME280;11362;48.102;11.620;2022-10-16T07:23:38;95471.91;;;23.24;48.99
22389;BME280;11362;48.102;11.620;2022-10-16T07:26:04;95476.59;;;23.27;48.85
22389;BME280;11362;48.102;11.620;2022-10-16T07:28:30;95475.41;;;23.28;48.82
22389;BME280;11362;48.102;11.620;2022-10-16T07:31:00;95470.22;;;23.30;49.03
22389;BME280;11362;48.102;11.620;2022-10-16T07:33:25;95478.94;;;23.32;49.23
22389;BME280;11362;48.102;11.620;2022-10-16T07:35:51;95485.66;;;23.35;49.13
22389;BME280;11362;48.102;11.620;2022-10-16T07:38:17;95495.56;;;23.32;49.37
22389;BME280;11362;48.102;11.620;2022-10-16T07:40:43;95502.69;;;23.33;49.66
22389;BME280;11362;48.102;11.620;2022-10-16T07:43:09;95499.88;;;23.37;49.82
22389;BME280;11362;48.102;11.620;2022-10-16T07:45:34;95507.78;;;23.38;49.94
22389;BME280;11362;48.102;11.620;2022-10-16T07:47:59;95508.53;;;23.42;50.16
22389;BME280;11362;48.102;11.620;2022-10-16T07:50:25;95509.72;;;23.44;50.76
22389;BME280;11362;48.102;11.620;2022-10-16T07:52:50;95518.41;;;23.46;50.79
22389;BME280;11362;48.102;11.620;2022-10-16T07:55:15;95512.03;;;23.49;51.04
22389;BME280;11362;48.102;11.620;2022-10-16T07:57:40;95521.94;;;23.50;51.66
22389;BME280;11362;48.102;11.620;2022-10-16T08:00:06;95511.63;;;23.51;51.05
22389;BME280;11362;48.102;11.620;2022-10-16T08:02:32;95518.03;;;23.44;51.77
22389;BME280;11362;48.102;11.620;2022-10-16T08:04:57;95525.56;;;23.40;52.18
22389;BME280;11362;48.102;11.620;2022-10-16T08:07:22;95527.94;;;23.42;51.88
22389;BME280;11362;48.102;11.620;2022-10-16T08:09:50;95529.88;;;23.48;51.88
22389;BME280;11362;48.102;11.620;2022-10-16T08:12:16;95531.03;;;23.51;51.39
22389;BME280;11362;48.102;11.620;2022-10-16T08:14:41;95531.00;;;23.54;51.07
22389;BME280;11362;48.102;11.620;2022-10-16T08:17:06;95532.56;;;23.55;50.91
22389;BME280;11362;48.102;11.620;2022-10-16T08:19:31;95529.38;;;23.57;51.23
22389;BME280;11362;48.102;11.620;2022-10-16T08:21:57;95526.22;;;23.58;51.21
22389;BME280;11362;48.102;11.620;2022-10-16T08:24:22;95525.00;;;23.59;51.70
22389;BME280;11362;48.102;11.620;2022-10-16T08:26:47;95528.16;;;23.61;51.70
22389;BME280;11362;48.102;11.620;2022-10-16T08:29:14;95541.63;;;23.63;51.62
22389;BME280;11362;48.102;11.620;2022-10-16T08:31:39;95541.63;;;23.63;51.29
22389;BME280;11362;48.102;11.620;2022-10-16T08:34:04;95545.97;;;23.64;51.22
22389;BME280;11362;48.102;11.620;2022-10-16T08:36:29;95546.31;;;23.66;51.44
22389;BME280;11362;48.102;11.620;2022-10-16T08:38:55;95536.03;;;23.66;51.23
22389;BME280;11362;48.102;11.620;2022-10-16T08:47:02;95550.66;;;23.70;51.34
22389;BME280;11362;48.102;11.620;2022-10-16T08:49:33;95543.91;;;23.71;50.98
22389;BME280;11362;48.102;11.620;2022-10-16T08:51:58;95541.91;;;23.72;51.19
22389;BME280;11362;48.102;11.620;2022-10-16T08:54:36;95553.81;;;23.72;51.65
22389;BME280;11362;48.102;11.620;2022-10-16T08:57:19;95555.38;;;23.73;51.33
22389;BME280;11362;48.102;11.620;2022-10-16T08:59:45;95556.19;;;23.74;51.58
22389;BME280;11362;48.102;11.620;2022-10-16T09:02:32;95558.53;;;23.75;51.42
22389;BME280;11362;48.102;11.620;2022-10-16T09:13:18;95575.13;;;23.79;51.71
22389;BME280;11362;48.102;11.620;2022-10-16T09:18:40;95573.16;;;23.79;51.63
22389;BME280;11362;48.102;11.620;2022-10-16T09:21:17;95577.50;;;23.80;51.74
22389;BME280;11362;48.102;11.620;2022-10-16T09:23:43;95573.16;;;23.79;51.63
22389;BME280;11362;48.102;11.620;2022-10-16T09:26:11;95565.59;;;23.80;51.73
22389;BME280;11362;48.102;11.620;2022-10-16T09:28:38;95559.66;;;23.81;51.83
22389;BME280;11362;48.102;11.620;2022-10-16T09:31:03;95562.44;;;23.81;51.77
22389;BME280;11362;48.102;11.620;2022-10-16T09:33:33;95570.75;;;23.81;51.87
22389;BME280;11362;48.102;11.620;2022-10-16T09:36:02;95573.53;;;23.81;51.74
22389;BME280;11362;48.102;11.620;2022-10-16T09:38:31;95584.22;;;23.83;51.84
22389;BME280;11362;48.102;11.620;2022-10-16T09:40:58;95576.66;;;23.83;51.86
22389;BME280;11362;48.102;11.620;2022-10-16T09:43:42;95577.88;;;23.82;51.74
22389;BME280;11362;48.102;11.620;2022-10-16T09:46:31;95579.44;;;23.83;51.63
22389;BME280;11362;48.102;11.620;2022-10-16T09:49:20;95579.44;;;23.83;51.65
22389;BME280;11362;48.102;11.620;2022-10-16T09:51:44;95567.16;;;23.84;51.57
22389;BME280;11362;48.102;11.620;2022-10-16T09:56:36;95579.03;;;23.85;51.59
22389;BME280;11362;48.102;11.620;2022-10-16T09:59:16;95584.59;;;23.85;51.76
22389;BME280;11362;48.102;11.620;2022-10-16T10:01:51;95590.94;;;23.85;51.38
22389;BME280;11362;48.102;11.620;2022-10-16T10:04:19;95587.00;;;23.86;51.47
22389;BME280;11362;48.102;11.620;2022-10-16T10:06:48;95586.19;;;23.86;51.48
22389;BME280;11362;48.102;11.620;2022-10-16T10:09:27;95583.00;;;23.87;51.49
22389;BME280;11362;48.102;11.620;2022-10-16T10:12:02;95594.09;;;23.87;51.48
22389;BME280;11362;48.102;11.620;2022-10-16T10:14:37;95595.69;;;23.88;51.70
22389;BME280;11362;48.102;11.620;2022-10-16T10:19:49;95581.00;;;23.88;51.40
22389;BME280;11362;48.102;11.620;2022-10-16T10:22:23;95581.81;;;23.88;51.81
22389;BME280;11362;48.102;11.620;2022-10-16T10:27:59;95573.47;;;23.88;51.56
22389;BME280;11362;48.102;11.620;2022-10-16T10:33:39;95581.41;;;23.90;51.59
22389;BME280;11362;48.102;11.620;2022-10-16T10:36:22;95584.19;;;23.90;51.71
22389;BME280;11362;48.102;11.620;2022-10-16T10:38:58;95580.59;;;23.89;51.37
22389;BME280;11362;48.102;11.620;2022-10-16T10:44:01;95585.75;;;23.91;51.40
22389;BME280;11362;48.102;11.620;2022-10-16T10:49:19;95575.03;;;23.93;51.45
22389;BME280;11362;48.102;11.620;2022-10-16T10:57:38;95586.91;;;23.93;51.67
22389;BME280;11362;48.102;11.620;2022-10-16T11:02:48;95582.94;;;23.94;51.63
22389;BME280;11362;48.102;11.620;2022-10-16T11:05:36;95578.97;;;23.95;51.37
22389;BME280;11362;48.102;11.620;2022-10-16T11:08:17;95569.44;;;23.96;51.42
22389;BME280;11362;48.102;11.620;2022-10-16T11:11:03;95575.78;;;23.97;51.40
22389;BME280;11362;48.102;11.620;2022-10-16T11:13:36;95579.34;;;23.97;51.15
22389;BME280;11362;48.102;11.620;2022-10-16T11:16:13;95571.00;;;23.97;51.24
22389;BME280;11362;48.102;11.620;2022-10-16T11:18:58;95567.03;;;23.98;51.28
22389;BME280;11362;48.102;11.620;2022-10-16T11:21:26;95564.25;;;23.98;51.18
22389;BME280;11362;48.102;11.620;2022-10-16T11:26:52;95567.03;;;23.98;51.08
22389;BME280;11362;48.102;11.620;2022-10-16T11:29:30;95564.66;;;24.00;51.10
22389;BME280;11362;48.102;11.620;2022-10-16T11:32:00;95570.19;;;24.00;51.24
22389;BME280;11362;48.102;11.620;2022-10-16T11:34:36;95573.34;;;24.02;51.07
22389;BME280;11362;48.102;11.620;2022-10-16T11:37:14;95572.53;;;24.02;50.78
22389;BME280;11362;48.102;11.620;2022-10-16T11:39:42;95570.56;;;24.02;50.82
22389;BME280;11362;48.102;11.620;2022-10-16T11:42:24;95565.81;;;24.03;50.90
22389;BME280;11362;48.102;11.620;2022-10-16T11:47:48;95565.38;;;24.04;51.07
22389;BME280;11362;48.102;11.620;2022-10-16T11:50:48;95566.94;;;24.05;50.97
22389;BME280;11362;48.102;11.620;2022-10-16T11:56:17;95553.88;;;24.06;51.06
22389;BME280;11362;48.102;11.620;2022-10-16T11:59:02;95558.22;;;24.07;50.79
22389;BME280;11362;48.102;11.620;2022-10-16T12:01:37;95559.03;;;24.07;51.02
22389;BME280;11362;48.102;11.620;2022-10-16T12:06:58;95569.31;;;24.07;50.84
22389;BME280;11362;48.102;11.620;2022-10-16T12:09:29;95560.22;;;24.06;51.03
22389;BME280;11362;48.102;11.620;2022-10-16T12:11:55;95559.78;;;24.08;50.93
22389;BME280;11362;48.102;11.620;2022-10-16T12:17:25;95563.72;;;24.10;50.75
22389;BME280;11362;48.102;11.620;2022-10-16T12:20:00;95551.88;;;24.10;50.90
22389;BME280;11362;48.102;11.620;2022-10-16T12:22:28;95555.78;;;24.12;50.88
22389;BME280;11362;48.102;11.620;2022-10-16T12:24:54;95559.34;;;24.13;50.67
22389;BME280;11362;48.102;11.620;2022-10-16T12:27:30;95554.59;;;24.13;50.83
22389;BME280;11362;48.102;11.620;2022-10-16T12:29:58;95557.38;;;24.13;50.71
22389;BME280;11362;48.102;11.620;2022-10-16T12:32:27;95558.94;;;24.14;50.92
22389;BME280;11362;48.102;11.620;2022-10-16T12:34:53;95561.28;;;24.16;50.68
22389;BME280;11362;48.102;11.620;2022-10-16T12:37:27;95559.31;;;24.16;50.57
22389;BME280;11362;48.102;11.620;2022-10-16T12:39:54;95550.19;;;24.16;50.58
22389;BME280;11362;48.102;11.620;2022-10-16T12:44:52;95559.69;;;24.18;50.23
22389;BME280;11362;48.102;11.620;2022-10-16T12:49:56;95561.25;;;24.19;50.44
22389;BME280;11362;48.102;11.620;2022-10-16T12:52:29;95561.63;;;24.21;50.51
22389;BME280;11362;48.102;11.620;2022-10-16T12:54:59;95552.09;;;24.22;50.28
22389;BME280;11362;48.102;11.620;2022-10-16T13:02:44;95558.81;;;24.25;50.34
22389;BME280;11362;48.102;11.620;2022-10-16T13:05:32;95555.63;;;24.26;50.34
22389;BME280;11362;48.102;11.620;2022-10-16T13:08:13;95559.97;;;24.27;50.09
22389;BME280;11362;48.102;11.620;2022-10-16T13:18:52;95559.50;;;24.32;50.23
22389;BME280;11362;48.102;11.620;2022-10-16T13:21:35;95555.53;;;24.33;50.01
22389;BME280;11362;48.102;11.620;2022-10-16T13:24:25;95562.66;;;24.34;50.14
22389;BME280;11362;48.102;11.620;2022-10-16T13:26:59;95560.69;;;24.35;50.01
22389;BME280;11362;48.102;11.620;2022-10-16T13:29:31;95560.28;;;24.36;49.64
22389;BME280;11362;48.102;11.620;2022-10-16T13:31:58;95564.63;;;24.37;49.36
22389;BME280;11362;48.102;11.620;2022-10-16T13:34:26;95570.94;;;24.38;49.93
22389;BME280;11362;48.102;11.620;2022-10-16T13:36:53;95566.19;;;24.38;49.91
22389;BME280;11362;48.102;11.620;2022-10-16T13:39:28;95562.19;;;24.39;49.59
22389;BME280;11362;48.102;11.620;2022-10-16T13:42:16;95558.22;;;24.40;49.94
22389;BME280;11362;48.102;11.620;2022-10-16T13:44:45;95563.41;;;24.38;49.88
22389;BME280;11362;48.102;11.620;2022-10-16T13:47:29;95570.53;;;24.39;49.90
22389;BME280;11362;48.102;11.620;2022-10-16T13:50:04;95568.16;;;24.38;49.83
22389;BME280;11362;48.102;11.620;2022-10-16T13:52:31;95565.81;;;24.36;49.95
22389;BME280;11362;48.102;11.620;2022-10-16T13:54:56;95560.31;;;24.33;49.94
22389;BME280;11362;48.102;11.620;2022-10-16T13:57:24;95561.16;;;24.26;50.07
22389;BME280;11362;48.102;11.620;2022-10-16T13:59:50;95568.31;;;24.24;50.12
22389;BME280;11362;48.102;11.620;2022-10-16T14:02:25;95571.53;;;24.22;50.24
22389;BME280;11362;48.102;11.620;2022-10-16T14:04:52;95567.97;;;24.22;50.13
22389;BME280;11362;48.102;11.620;2022-10-16T14:07:30;95573.94;;;24.20;50.21
22389;BME280;11362;48.102;11.620;2022-10-16T14:10:00;95571.56;;;24.19;50.23
22389;BME280;11362;48.102;11.620;2022-10-16T14:12:25;95579.09;;;24.18;50.12
22389;BME280;11362;48.102;11.620;2022-10-16T14:14:53;95585.09;;;24.17;50.05
22389;BME280;11362;48.102;11.620;2022-10-16T14:17:22;95580.72;;;24.16;49.93
22389;BME280;11362;48.102;11.620;2022-10-16T14:19:50;95585.50;;;24.15;50.24
22389;BME280;11362;48.102;11.620;2022-10-16T14:25:00;95583.94;;;24.14;50.14
22389;BME280;11362;48.102;11.620;2022-10-16T14:27:34;95578.78;;;24.13;49.94
22389;BME280;11362;48.102;11.620;2022-10-16T14:30:20;95579.19;;;24.11;49.76
22389;BME280;11362;48.102;11.620;2022-10-16T14:33:35;95581.97;;;24.11;50.02